sensor_id;sensor_type;location;lat;lon;timestamp;P1;durP1;ratioP1;P2;durP2;ratioP2
11346;SDS011;5728;42.722;23.258;2023-04-30T00:02:12;9.60;;;6.07;;
11346;SDS011;5728;42.722;23.258;2023-04-30T00:04:39;12.37;;;6.10;;
11346;SDS011;5728;42.722;23.258;2023-04-30T00:07:06;13.43;;;6.47;;
11346;SDS011;5728;42.722;23.258;2023-04-30T00:09:32;10.03;;;6.37;;
11346;SDS011;5728;42.722;23.258;2023-04-30T00:11:59;9.60;;;5.60;;
11346;SDS011;5728;42.722;23.258;2023-04-30T00:14:26;6.87;;;5.00;;
11346;SDS011;5728;42.722;23.258;2023-04-30T00:16:53;11.50;;;5.37;;
11346;SDS011;5728;42.722;23.258;2023-04-30T00:19:21;8.60;;;5.37;;
11346;SDS011;5728;42.722;23.258;2023-04-30T00:21:48;7.80;;;4.50;;
11346;SDS011;5728;42.722;23.258;2023-04-30T00:24:14;8.67;;;4.87;;
11346;SDS011;5728;42.722;23.258;2023-04-30T00:26:41;7.83;;;5.23;;
11346;SDS011;5728;42.722;23.258;2023-04-30T00:29:08;9.07;;;6.03;;
11346;SDS011;5728;42.722;23.258;2023-04-30T00:31:35;8.23;;;5.70;;
11346;SDS011;5728;42.722;23.258;2023-04-30T00:34:01;9.40;;;5.33;;
11346;SDS011;5728;42.722;23.258;2023-04-30T00:36:29;6.87;;;5.17;;
11346;SDS011;5728;42.722;23.258;2023-04-30T00:38:56;10.10;;;5.80;;
11346;SDS011;5728;42.722;23.258;2023-04-30T00:41:23;11.70;;;5.20;;
11346;SDS011;5728;42.722;23.258;2023-04-30T00:43:51;7.97;;;5.07;;
11346;SDS011;5728;42.722;23.258;2023-04-30T00:46:17;12.03;;;5.80;;
11346;SDS011;5728;42.722;23.258;2023-04-30T00:48:44;8.43;;;6.03;;
11346;SDS011;5728;42.722;23.258;2023-04-30T00:51:11;10.43;;;5.53;;
11346;SDS011;5728;42.722;23.258;2023-04-30T00:53:40;12.43;;;5.63;;
11346;SDS011;5728;42.722;23.258;2023-04-30T00:56:07;12.60;;;6.17;;
11346;SDS011;5728;42.722;23.258;2023-04-30T00:58:34;10.93;;;6.00;;
11346;SDS011;5728;42.722;23.258;2023-04-30T01:01:02;10.73;;;5.40;;
11346;SDS011;5728;42.722;23.258;2023-04-30T01:03:29;10.17;;;5.47;;
11346;SDS011;5728;42.722;23.258;2023-04-30T01:05:56;9.77;;;6.27;;
11346;SDS011;5728;42.722;23.258;2023-04-30T01:08:22;8.30;;;4.77;;
11346;SDS011;5728;42.722;23.258;2023-04-30T01:10:52;8.90;;;5.40;;
11346;SDS011;5728;42.722;23.258;2023-04-30T01:13:30;11.80;;;7.83;;
11346;SDS011;5728;42.722;23.258;2023-04-30T01:16:06;8.23;;;5.43;;
11346;SDS011;5728;42.722;23.258;2023-04-30T01:18:38;11.23;;;5.93;;
11346;SDS011;5728;42.722;23.258;2023-04-30T01:21:09;14.33;;;8.13;;
11346;SDS011;5728;42.722;23.258;2023-04-30T01:23:41;19.63;;;9.60;;
11346;SDS011;5728;42.722;23.258;2023-04-30T01:26:37;16.83;;;10.10;;
11346;SDS011;5728;42.722;23.258;2023-04-30T01:29:19;15.13;;;9.57;;
11346;SDS011;5728;42.722;23.258;2023-04-30T01:31:49;14.20;;;8.57;;
11346;SDS011;5728;42.722;23.258;2023-04-30T01:34:15;22.23;;;10.73;;
11346;SDS011;5728;42.722;23.258;2023-04-30T01:36:44;15.90;;;9.37;;
11346;SDS011;5728;42.722;23.258;2023-04-30T01:39:26;20.70;;;10.90;;
11346;SDS011;5728;42.722;23.258;2023-04-30T01:42:04;21.37;;;12.03;;
11346;SDS011;5728;42.722;23.258;2023-04-30T01:44:48;22.57;;;11.87;;
11346;SDS011;5728;42.722;23.258;2023-04-30T01:47:24;23.33;;;12.23;;
11346;SDS011;5728;42.722;23.258;2023-04-30T01:50:02;25.40;;;12.50;;
11346;SDS011;5728;42.722;23.258;2023-04-30T01:52:37;20.97;;;12.33;;
11346;SDS011;5728;42.722;23.258;2023-04-30T01:55:07;20.10;;;12.07;;
11346;SDS011;5728;42.722;23.258;2023-04-30T01:57:40;18.93;;;11.20;;
11346;SDS011;5728;42.722;23.258;2023-04-30T02:00:11;22.10;;;11.10;;
11346;SDS011;5728;42.722;23.258;2023-04-30T02:02:41;17.23;;;11.50;;
11346;SDS011;5728;42.722;23.258;2023-04-30T02:05:08;21.57;;;10.53;;
11346;SDS011;5728;42.722;23.258;2023-04-30T02:07:39;17.77;;;10.33;;
11346;SDS011;5728;42.722;23.258;2023-04-30T02:10:07;19.80;;;11.40;;
11346;SDS011;5728;42.722;23.258;2023-04-30T02:12:34;17.47;;;11.23;;
11346;SDS011;5728;42.722;23.258;2023-04-30T02:15:02;21.27;;;10.93;;
11346;SDS011;5728;42.722;23.258;2023-04-30T02:17:31;15.20;;;9.93;;
11346;SDS011;5728;42.722;23.258;2023-04-30T02:19:57;16.47;;;10.53;;
11346;SDS011;5728;42.722;23.258;2023-04-30T02:22:24;12.67;;;7.47;;
11346;SDS011;5728;42.722;23.258;2023-04-30T02:24:51;14.07;;;8.87;;
11346;SDS011;5728;42.722;23.258;2023-04-30T02:27:21;12.83;;;6.93;;
11346;SDS011;5728;42.722;23.258;2023-04-30T02:29:49;11.87;;;6.60;;
11346;SDS011;5728;42.722;23.258;2023-04-30T02:32:16;8.83;;;5.87;;
11346;SDS011;5728;42.722;23.258;2023-04-30T02:34:44;11.83;;;6.27;;
11346;SDS011;5728;42.722;23.258;2023-04-30T02:37:11;11.27;;;6.70;;
11346;SDS011;5728;42.722;23.258;2023-04-30T02:39:38;14.73;;;6.17;;
11346;SDS011;5728;42.722;23.258;2023-04-30T02:42:05;7.70;;;6.30;;
11346;SDS011;5728;42.722;23.258;2023-04-30T02:44:32;11.53;;;6.20;;
11346;SDS011;5728;42.722;23.258;2023-04-30T02:46:59;12.30;;;6.60;;
11346;SDS011;5728;42.722;23.258;2023-04-30T02:49:26;9.77;;;6.57;;
11346;SDS011;5728;42.722;23.258;2023-04-30T02:51:54;11.03;;;6.53;;
11346;SDS011;5728;42.722;23.258;2023-04-30T02:54:21;7.73;;;6.20;;
11346;SDS011;5728;42.722;23.258;2023-04-30T02:56:48;11.30;;;6.83;;
11346;SDS011;5728;42.722;23.258;2023-04-30T02:59:15;12.33;;;6.17;;
11346;SDS011;5728;42.722;23.258;2023-04-30T03:01:42;8.63;;;6.20;;
11346;SDS011;5728;42.722;23.258;2023-04-30T03:04:09;10.07;;;6.30;;
11346;SDS011;5728;42.722;23.258;2023-04-30T03:06:36;13.43;;;7.33;;
11346;SDS011;5728;42.722;23.258;2023-04-30T03:09:04;12.90;;;6.33;;
11346;SDS011;5728;42.722;23.258;2023-04-30T03:11:30;8.80;;;6.93;;
11346;SDS011;5728;42.722;23.258;2023-04-30T03:13:57;15.60;;;6.97;;
11346;SDS011;5728;42.722;23.258;2023-04-30T03:16:25;15.23;;;6.50;;
11346;SDS011;5728;42.722;23.258;2023-04-30T03:18:54;10.87;;;7.20;;
11346;SDS011;5728;42.722;23.258;2023-04-30T03:21:21;10.80;;;7.37;;
11346;SDS011;5728;42.722;23.258;2023-04-30T03:23:48;9.30;;;6.50;;
11346;SDS011;5728;42.722;23.258;2023-04-30T03:26:16;12.30;;;7.57;;
11346;SDS011;5728;42.722;23.258;2023-04-30T03:28:42;11.80;;;7.43;;
11346;SDS011;5728;42.722;23.258;2023-04-30T03:31:09;28.00;;;8.07;;
11346;SDS011;5728;42.722;23.258;2023-04-30T03:33:36;11.03;;;7.07;;
11346;SDS011;5728;42.722;23.258;2023-04-30T03:36:03;16.57;;;6.87;;
11346;SDS011;5728;42.722;23.258;2023-04-30T03:38:30;11.97;;;7.33;;
11346;SDS011;5728;42.722;23.258;2023-04-30T03:40:56;16.17;;;6.90;;
11346;SDS011;5728;42.722;23.258;2023-04-30T03:43:24;47.70;;;22.27;;
11346;SDS011;5728;42.722;23.258;2023-04-30T03:45:51;13.53;;;8.17;;
11346;SDS011;5728;42.722;23.258;2023-04-30T03:48:18;15.83;;;7.00;;
11346;SDS011;5728;42.722;23.258;2023-04-30T03:50:45;13.57;;;8.80;;
11346;SDS011;5728;42.722;23.258;2023-04-30T03:53:12;32.07;;;13.53;;
11346;SDS011;5728;42.722;23.258;2023-04-30T03:55:38;29.40;;;13.60;;
11346;SDS011;5728;42.722;23.258;2023-04-30T03:58:05;20.73;;;12.97;;
11346;SDS011;5728;42.722;23.258;2023-04-30T04:00:33;27.77;;;12.83;;
11346;SDS011;5728;42.722;23.258;2023-04-30T04:03:00;21.10;;;11.17;;
11346;SDS011;5728;42.722;23.258;2023-04-30T04:05:27;22.90;;;11.30;;
11346;SDS011;5728;42.722;23.258;2023-04-30T04:07:54;21.00;;;10.57;;
11346;SDS011;5728;42.722;23.258;2023-04-30T04:10:21;16.63;;;10.47;;
11346;SDS011;5728;42.722;23.258;2023-04-30T04:12:47;14.70;;;8.70;;
11346;SDS011;5728;42.722;23.258;2023-04-30T04:15:14;15.93;;;9.77;;
11346;SDS011;5728;42.722;23.258;2023-04-30T04:17:42;13.63;;;8.93;;
11346;SDS011;5728;42.722;23.258;2023-04-30T04:20:09;12.93;;;9.20;;
11346;SDS011;5728;42.722;23.258;2023-04-30T04:22:37;17.90;;;9.47;;
11346;SDS011;5728;42.722;23.258;2023-04-30T04:25:04;15.07;;;9.23;;
11346;SDS011;5728;42.722;23.258;2023-04-30T04:27:31;13.97;;;8.27;;
11346;SDS011;5728;42.722;23.258;2023-04-30T04:29:58;11.73;;;7.67;;
11346;SDS011;5728;42.722;23.258;2023-04-30T04:32:26;14.77;;;8.93;;
11346;SDS011;5728;42.722;23.258;2023-04-30T04:34:54;15.93;;;7.87;;
11346;SDS011;5728;42.722;23.258;2023-04-30T04:37:21;16.60;;;9.63;;
11346;SDS011;5728;42.722;23.258;2023-04-30T04:39:47;14.80;;;8.90;;
11346;SDS011;5728;42.722;23.258;2023-04-30T04:42:15;17.53;;;9.47;;
11346;SDS011;5728;42.722;23.258;2023-04-30T04:44:42;9.80;;;7.17;;
11346;SDS011;5728;42.722;23.258;2023-04-30T04:47:09;11.77;;;7.37;;
11346;SDS011;5728;42.722;23.258;2023-04-30T04:49:36;16.63;;;6.63;;
11346;SDS011;5728;42.722;23.258;2023-04-30T04:52:04;9.17;;;6.63;;
11346;SDS011;5728;42.722;23.258;2023-04-30T04:54:31;9.80;;;5.80;;
11346;SDS011;5728;42.722;23.258;2023-04-30T04:56:58;8.77;;;5.30;;
11346;SDS011;5728;42.722;23.258;2023-04-30T04:59:25;11.07;;;6.20;;
11346;SDS011;5728;42.722;23.258;2023-04-30T05:01:52;8.50;;;5.63;;
11346;SDS011;5728;42.722;23.258;2023-04-30T05:04:18;8.50;;;5.43;;
11346;SDS011;5728;42.722;23.258;2023-04-30T05:06:45;13.87;;;6.20;;
11346;SDS011;5728;42.722;23.258;2023-04-30T05:09:13;8.13;;;5.53;;
11346;SDS011;5728;42.722;23.258;2023-04-30T05:11:40;12.70;;;5.47;;
11346;SDS011;5728;42.722;23.258;2023-04-30T05:14:08;12.87;;;5.33;;
11346;SDS011;5728;42.722;23.258;2023-04-30T05:16:35;10.77;;;6.50;;
11346;SDS011;5728;42.722;23.258;2023-04-30T05:19:01;9.07;;;6.00;;
11346;SDS011;5728;42.722;23.258;2023-04-30T05:21:28;15.10;;;7.23;;
11346;SDS011;5728;42.722;23.258;2023-04-30T05:23:56;26.40;;;8.00;;
11346;SDS011;5728;42.722;23.258;2023-04-30T05:26:24;11.57;;;7.87;;
11346;SDS011;5728;42.722;23.258;2023-04-30T05:28:51;17.43;;;8.60;;
11346;SDS011;5728;42.722;23.258;2023-04-30T05:31:18;12.47;;;8.53;;
11346;SDS011;5728;42.722;23.258;2023-04-30T05:33:44;14.87;;;8.60;;
11346;SDS011;5728;42.722;23.258;2023-04-30T05:36:12;9.90;;;7.07;;
11346;SDS011;5728;42.722;23.258;2023-04-30T05:38:39;15.03;;;7.47;;
11346;SDS011;5728;42.722;23.258;2023-04-30T05:41:06;14.60;;;7.30;;
11346;SDS011;5728;42.722;23.258;2023-04-30T05:43:34;9.87;;;6.80;;
11346;SDS011;5728;42.722;23.258;2023-04-30T05:46:01;11.03;;;6.40;;
11346;SDS011;5728;42.722;23.258;2023-04-30T05:48:28;10.67;;;6.17;;
11346;SDS011;5728;42.722;23.258;2023-04-30T05:50:55;11.13;;;5.73;;
11346;SDS011;5728;42.722;23.258;2023-04-30T05:53:22;11.07;;;5.33;;
11346;SDS011;5728;42.722;23.258;2023-04-30T05:55:49;13.77;;;5.73;;
11346;SDS011;5728;42.722;23.258;2023-04-30T05:58:16;9.93;;;5.10;;
11346;SDS011;5728;42.722;23.258;2023-04-30T06:00:44;7.37;;;5.00;;
11346;SDS011;5728;42.722;23.258;2023-04-30T06:03:16;10.23;;;6.13;;
11346;SDS011;5728;42.722;23.258;2023-04-30T06:05:43;9.30;;;5.47;;
11346;SDS011;5728;42.722;23.258;2023-04-30T06:08:10;12.80;;;6.00;;
11346;SDS011;5728;42.722;23.258;2023-04-30T06:10:37;9.37;;;5.10;;
11346;SDS011;5728;42.722;23.258;2023-04-30T06:13:04;11.43;;;5.50;;
11346;SDS011;5728;42.722;23.258;2023-04-30T06:15:31;10.53;;;5.77;;
11346;SDS011;5728;42.722;23.258;2023-04-30T06:18:00;10.37;;;5.23;;
11346;SDS011;5728;42.722;23.258;2023-04-30T06:20:27;13.27;;;6.07;;
11346;SDS011;5728;42.722;23.258;2023-04-30T06:22:54;12.50;;;7.00;;
11346;SDS011;5728;42.722;23.258;2023-04-30T06:25:20;9.13;;;6.80;;
11346;SDS011;5728;42.722;23.258;2023-04-30T06:27:47;11.43;;;6.40;;
11346;SDS011;5728;42.722;23.258;2023-04-30T06:30:15;12.43;;;6.57;;
11346;SDS011;5728;42.722;23.258;2023-04-30T06:32:43;8.23;;;5.70;;
11346;SDS011;5728;42.722;23.258;2023-04-30T06:35:11;9.17;;;5.70;;
11346;SDS011;5728;42.722;23.258;2023-04-30T06:37:38;15.17;;;5.50;;
11346;SDS011;5728;42.722;23.258;2023-04-30T06:40:05;10.30;;;6.73;;
11346;SDS011;5728;42.722;23.258;2023-04-30T06:42:33;7.00;;;5.93;;
11346;SDS011;5728;42.722;23.258;2023-04-30T06:45:00;11.43;;;6.43;;
11346;SDS011;5728;42.722;23.258;2023-04-30T06:47:27;8.73;;;5.72;;
11346;SDS011;5728;42.722;23.258;2023-04-30T06:49:54;10.07;;;6.30;;
11346;SDS011;5728;42.722;23.258;2023-04-30T06:52:22;10.60;;;5.93;;
11346;SDS011;5728;42.722;23.258;2023-04-30T06:54:49;9.07;;;6.53;;
11346;SDS011;5728;42.722;23.258;2023-04-30T06:57:16;10.55;;;5.75;;
11346;SDS011;5728;42.722;23.258;2023-04-30T06:59:43;12.57;;;6.38;;
11346;SDS011;5728;42.722;23.258;2023-04-30T07:02:10;7.20;;;6.18;;
11346;SDS011;5728;42.722;23.258;2023-04-30T07:04:37;10.55;;;5.93;;
11346;SDS011;5728;42.722;23.258;2023-04-30T07:07:03;9.48;;;5.68;;
11346;SDS011;5728;42.722;23.258;2023-04-30T07:09:31;9.65;;;6.10;;
11346;SDS011;5728;42.722;23.258;2023-04-30T07:11:58;14.23;;;5.80;;
11346;SDS011;5728;42.722;23.258;2023-04-30T07:14:25;12.65;;;5.68;;
11346;SDS011;5728;42.722;23.258;2023-04-30T07:16:52;12.40;;;6.22;;
11346;SDS011;5728;42.722;23.258;2023-04-30T07:19:19;14.40;;;5.80;;
11346;SDS011;5728;42.722;23.258;2023-04-30T07:21:47;7.03;;;4.97;;
11346;SDS011;5728;42.722;23.258;2023-04-30T07:24:14;10.13;;;5.13;;
11346;SDS011;5728;42.722;23.258;2023-04-30T07:26:42;8.93;;;5.50;;
11346;SDS011;5728;42.722;23.258;2023-04-30T07:29:09;9.32;;;6.13;;
11346;SDS011;5728;42.722;23.258;2023-04-30T07:31:36;12.57;;;5.90;;
11346;SDS011;5728;42.722;23.258;2023-04-30T07:34:02;6.88;;;5.68;;
11346;SDS011;5728;42.722;23.258;2023-04-30T07:36:29;12.90;;;5.72;;
11346;SDS011;5728;42.722;23.258;2023-04-30T07:38:56;7.55;;;5.82;;
11346;SDS011;5728;42.722;23.258;2023-04-30T07:41:23;9.98;;;6.10;;
11346;SDS011;5728;42.722;23.258;2023-04-30T07:43:52;11.00;;;5.03;;
11346;SDS011;5728;42.722;23.258;2023-04-30T07:46:18;13.65;;;5.55;;
11346;SDS011;5728;42.722;23.258;2023-04-30T07:48:45;8.70;;;5.03;;
11346;SDS011;5728;42.722;23.258;2023-04-30T07:51:12;9.80;;;4.70;;
11346;SDS011;5728;42.722;23.258;2023-04-30T07:53:39;10.15;;;4.53;;
11346;SDS011;5728;42.722;23.258;2023-04-30T07:56:06;10.02;;;4.20;;
11346;SDS011;5728;42.722;23.258;2023-04-30T07:58:32;25.92;;;19.02;;
11346;SDS011;5728;42.722;23.258;2023-04-30T08:01:01;16.10;;;11.27;;
11346;SDS011;5728;42.722;23.258;2023-04-30T08:03:28;7.03;;;4.47;;
11346;SDS011;5728;42.722;23.258;2023-04-30T08:05:54;5.72;;;4.05;;
11346;SDS011;5728;42.722;23.258;2023-04-30T08:08:21;8.18;;;4.50;;
11346;SDS011;5728;42.722;23.258;2023-04-30T08:10:48;8.43;;;4.53;;
11346;SDS011;5728;42.722;23.258;2023-04-30T08:13:15;7.63;;;4.35;;
11346;SDS011;5728;42.722;23.258;2023-04-30T08:15:42;8.25;;;4.07;;
11346;SDS011;5728;42.722;23.258;2023-04-30T08:18:10;13.85;;;3.72;;
11346;SDS011;5728;42.722;23.258;2023-04-30T08:20:37;5.43;;;3.20;;
11346;SDS011;5728;42.722;23.258;2023-04-30T08:23:04;6.25;;;3.72;;
11346;SDS011;5728;42.722;23.258;2023-04-30T08:25:31;10.82;;;3.20;;
11346;SDS011;5728;42.722;23.258;2023-04-30T08:27:58;6.25;;;3.80;;
11346;SDS011;5728;42.722;23.258;2023-04-30T08:30:25;4.28;;;3.15;;
11346;SDS011;5728;42.722;23.258;2023-04-30T08:32:51;6.95;;;3.83;;
11346;SDS011;5728;42.722;23.258;2023-04-30T08:35:20;7.63;;;3.40;;
11346;SDS011;5728;42.722;23.258;2023-04-30T08:37:47;5.85;;;3.40;;
11346;SDS011;5728;42.722;23.258;2023-04-30T08:40:14;5.68;;;3.30;;
11346;SDS011;5728;42.722;23.258;2023-04-30T08:42:44;9.70;;;3.90;;
11346;SDS011;5728;42.722;23.258;2023-04-30T08:45:15;6.57;;;4.45;;
11346;SDS011;5728;42.722;23.258;2023-04-30T08:48:59;13.77;;;4.55;;
11346;SDS011;5728;42.722;23.258;2023-04-30T08:51:26;7.82;;;3.10;;
11346;SDS011;5728;42.722;23.258;2023-04-30T08:53:53;3.40;;;2.90;;
11346;SDS011;5728;42.722;23.258;2023-04-30T08:56:22;3.83;;;3.42;;
11346;SDS011;5728;42.722;23.258;2023-04-30T08:58:49;4.53;;;3.33;;
11346;SDS011;5728;42.722;23.258;2023-04-30T09:01:16;4.30;;;3.53;;
11346;SDS011;5728;42.722;23.258;2023-04-30T09:03:43;5.47;;;3.42;;
11346;SDS011;5728;42.722;23.258;2023-04-30T09:06:15;5.65;;;3.10;;
11346;SDS011;5728;42.722;23.258;2023-04-30T09:08:43;5.18;;;3.20;;
11346;SDS011;5728;42.722;23.258;2023-04-30T09:11:23;4.75;;;3.70;;
11346;SDS011;5728;42.722;23.258;2023-04-30T09:13:52;3.60;;;3.10;;
11346;SDS011;5728;42.722;23.258;2023-04-30T09:16:21;4.63;;;3.17;;
11346;SDS011;5728;42.722;23.258;2023-04-30T09:18:49;5.20;;;3.03;;
11346;SDS011;5728;42.722;23.258;2023-04-30T09:21:28;3.03;;;2.72;;
11346;SDS011;5728;42.722;23.258;2023-04-30T09:23:57;3.35;;;3.05;;
11346;SDS011;5728;42.722;23.258;2023-04-30T09:26:25;5.75;;;3.30;;
11346;SDS011;5728;42.722;23.258;2023-04-30T09:28:53;5.25;;;3.17;;
11346;SDS011;5728;42.722;23.258;2023-04-30T09:31:22;4.70;;;3.20;;
11346;SDS011;5728;42.722;23.258;2023-04-30T09:33:50;4.65;;;3.10;;
11346;SDS011;5728;42.722;23.258;2023-04-30T09:36:19;4.75;;;3.58;;
11346;SDS011;5728;42.722;23.258;2023-04-30T09:38:46;5.47;;;3.83;;
11346;SDS011;5728;42.722;23.258;2023-04-30T09:41:20;10.75;;;4.47;;
11346;SDS011;5728;42.722;23.258;2023-04-30T09:43:48;3.38;;;3.08;;
11346;SDS011;5728;42.722;23.258;2023-04-30T09:46:17;4.57;;;3.22;;
11346;SDS011;5728;42.722;23.258;2023-04-30T09:48:44;3.50;;;3.20;;
11346;SDS011;5728;42.722;23.258;2023-04-30T09:51:11;4.45;;;3.35;;
11346;SDS011;5728;42.722;23.258;2023-04-30T09:53:40;5.28;;;3.10;;
11346;SDS011;5728;42.722;23.258;2023-04-30T09:56:08;8.07;;;3.40;;
11346;SDS011;5728;42.722;23.258;2023-04-30T09:58:38;2.55;;;2.35;;
11346;SDS011;5728;42.722;23.258;2023-04-30T10:01:09;4.60;;;3.10;;
11346;SDS011;5728;42.722;23.258;2023-04-30T10:03:36;6.93;;;3.85;;
11346;SDS011;5728;42.722;23.258;2023-04-30T10:06:07;5.90;;;2.92;;
11346;SDS011;5728;42.722;23.258;2023-04-30T10:08:39;3.33;;;2.55;;
11346;SDS011;5728;42.722;23.258;2023-04-30T10:11:09;6.00;;;3.35;;
11346;SDS011;5728;42.722;23.258;2023-04-30T10:13:42;3.90;;;3.50;;
11346;SDS011;5728;42.722;23.258;2023-04-30T10:16:14;5.30;;;3.22;;
11346;SDS011;5728;42.722;23.258;2023-04-30T10:18:45;3.35;;;3.05;;
11346;SDS011;5728;42.722;23.258;2023-04-30T10:21:16;4.35;;;3.65;;
11346;SDS011;5728;42.722;23.258;2023-04-30T10:23:47;3.25;;;2.95;;
11346;SDS011;5728;42.722;23.258;2023-04-30T10:26:14;3.53;;;2.97;;
11346;SDS011;5728;42.722;23.258;2023-04-30T10:28:43;5.55;;;3.75;;
11346;SDS011;5728;42.722;23.258;2023-04-30T10:31:14;2.95;;;2.65;;
11346;SDS011;5728;42.722;23.258;2023-04-30T10:33:45;3.22;;;2.75;;
11346;SDS011;5728;42.722;23.258;2023-04-30T10:36:21;3.30;;;3.00;;
11346;SDS011;5728;42.722;23.258;2023-04-30T10:38:56;4.40;;;2.90;;
11346;SDS011;5728;42.722;23.258;2023-04-30T10:41:25;3.03;;;2.75;;
11346;SDS011;5728;42.722;23.258;2023-04-30T10:43:53;3.72;;;2.97;;
11346;SDS011;5728;42.722;23.258;2023-04-30T10:46:22;4.65;;;3.28;;
11346;SDS011;5728;42.722;23.258;2023-04-30T10:48:51;5.63;;;3.30;;
11346;SDS011;5728;42.722;23.258;2023-04-30T10:51:19;3.40;;;3.00;;
11346;SDS011;5728;42.722;23.258;2023-04-30T10:53:47;3.10;;;2.85;;
11346;SDS011;5728;42.722;23.258;2023-04-30T10:56:29;3.60;;;2.65;;
11346;SDS011;5728;42.722;23.258;2023-04-30T10:58:58;4.75;;;2.40;;
11346;SDS011;5728;42.722;23.258;2023-04-30T11:01:26;2.40;;;2.20;;
11346;SDS011;5728;42.722;23.258;2023-04-30T11:04:04;3.30;;;3.00;;
11346;SDS011;5728;42.722;23.258;2023-04-30T11:06:47;3.53;;;2.53;;
11346;SDS011;5728;42.722;23.258;2023-04-30T11:09:15;4.90;;;2.95;;
11346;SDS011;5728;42.722;23.258;2023-04-30T11:11:44;4.57;;;2.85;;
11346;SDS011;5728;42.722;23.258;2023-04-30T11:14:11;3.85;;;2.97;;
11346;SDS011;5728;42.722;23.258;2023-04-30T11:16:47;5.00;;;3.30;;
11346;SDS011;5728;42.722;23.258;2023-04-30T11:19:15;4.90;;;2.88;;
11346;SDS011;5728;42.722;23.258;2023-04-30T11:21:44;3.53;;;3.10;;
11346;SDS011;5728;42.722;23.258;2023-04-30T11:24:50;4.55;;;3.03;;
11346;SDS011;5728;42.722;23.258;2023-04-30T11:27:32;4.20;;;3.20;;
11346;SDS011;5728;42.722;23.258;2023-04-30T11:30:01;5.88;;;2.28;;
11346;SDS011;5728;42.722;23.258;2023-04-30T11:32:34;3.80;;;3.28;;
11346;SDS011;5728;42.722;23.258;2023-04-30T11:35:02;4.93;;;3.10;;
11346;SDS011;5728;42.722;23.258;2023-04-30T11:37:31;3.45;;;2.65;;
11346;SDS011;5728;42.722;23.258;2023-04-30T11:40:00;3.38;;;3.08;;
11346;SDS011;5728;42.722;23.258;2023-04-30T11:42:28;5.72;;;3.00;;
11346;SDS011;5728;42.722;23.258;2023-04-30T11:45:06;3.08;;;2.60;;
11346;SDS011;5728;42.722;23.258;2023-04-30T11:47:41;3.38;;;2.63;;
11346;SDS011;5728;42.722;23.258;2023-04-30T11:50:09;3.85;;;2.97;;
11346;SDS011;5728;42.722;23.258;2023-04-30T11:52:37;3.30;;;3.00;;
11346;SDS011;5728;42.722;23.258;2023-04-30T11:55:08;5.70;;;3.53;;
11346;SDS011;5728;42.722;23.258;2023-04-30T11:57:39;3.83;;;3.38;;
11346;SDS011;5728;42.722;23.258;2023-04-30T12:00:09;5.95;;;3.15;;
11346;SDS011;5728;42.722;23.258;2023-04-30T12:02:37;4.15;;;2.90;;
11346;SDS011;5728;42.722;23.258;2023-04-30T12:05:05;6.20;;;3.30;;
11346;SDS011;5728;42.722;23.258;2023-04-30T12:07:43;3.33;;;2.67;;
11346;SDS011;5728;42.722;23.258;2023-04-30T12:10:11;5.35;;;3.28;;
11346;SDS011;5728;42.722;23.258;2023-04-30T12:12:38;3.60;;;3.28;;
11346;SDS011;5728;42.722;23.258;2023-04-30T12:15:15;5.43;;;3.35;;
11346;SDS011;5728;42.722;23.258;2023-04-30T12:17:44;3.20;;;2.90;;
11346;SDS011;5728;42.722;23.258;2023-04-30T12:20:11;3.13;;;2.50;;
11346;SDS011;5728;42.722;23.258;2023-04-30T12:22:40;3.88;;;3.10;;
11346;SDS011;5728;42.722;23.258;2023-04-30T12:25:08;3.85;;;2.63;;
11346;SDS011;5728;42.722;23.258;2023-04-30T12:27:38;3.80;;;3.17;;
11346;SDS011;5728;42.722;23.258;2023-04-30T12:30:06;3.45;;;3.15;;
11346;SDS011;5728;42.722;23.258;2023-04-30T12:32:39;3.97;;;3.38;;
11346;SDS011;5728;42.722;23.258;2023-04-30T12:35:07;15.07;;;11.75;;
11346;SDS011;5728;42.722;23.258;2023-04-30T12:37:34;6.28;;;3.63;;
11346;SDS011;5728;42.722;23.258;2023-04-30T12:40:01;2.88;;;2.50;;
11346;SDS011;5728;42.722;23.258;2023-04-30T12:42:32;8.52;;;3.03;;
11346;SDS011;5728;42.722;23.258;2023-04-30T12:44:59;12.70;;;2.95;;
11346;SDS011;5728;42.722;23.258;2023-04-30T12:47:26;6.38;;;3.35;;
11346;SDS011;5728;42.722;23.258;2023-04-30T12:49:56;3.22;;;2.95;;
11346;SDS011;5728;42.722;23.258;2023-04-30T12:52:24;3.67;;;3.38;;
11346;SDS011;5728;42.722;23.258;2023-04-30T12:54:51;3.08;;;2.60;;
11346;SDS011;5728;42.722;23.258;2023-04-30T12:57:20;3.65;;;2.83;;
11346;SDS011;5728;42.722;23.258;2023-04-30T12:59:56;5.03;;;3.17;;
11346;SDS011;5728;42.722;23.258;2023-04-30T13:02:24;3.65;;;2.80;;
11346;SDS011;5728;42.722;23.258;2023-04-30T13:04:52;5.20;;;3.67;;
11346;SDS011;5728;42.722;23.258;2023-04-30T13:07:21;4.25;;;3.13;;
11346;SDS011;5728;42.722;23.258;2023-04-30T13:09:47;3.58;;;3.28;;
11346;SDS011;5728;42.722;23.258;2023-04-30T13:12:14;3.45;;;2.85;;
11346;SDS011;5728;42.722;23.258;2023-04-30T13:14:41;6.13;;;2.92;;
11346;SDS011;5728;42.722;23.258;2023-04-30T13:17:08;3.63;;;3.17;;
11346;SDS011;5728;42.722;23.258;2023-04-30T13:19:37;4.13;;;2.70;;
11346;SDS011;5728;42.722;23.258;2023-04-30T13:22:04;5.22;;;3.33;;
11346;SDS011;5728;42.722;23.258;2023-04-30T13:24:32;4.75;;;3.50;;
11346;SDS011;5728;42.722;23.258;2023-04-30T13:26:59;8.00;;;4.03;;
11346;SDS011;5728;42.722;23.258;2023-04-30T13:29:26;5.32;;;3.70;;
11346;SDS011;5728;42.722;23.258;2023-04-30T13:31:53;8.00;;;4.20;;
11346;SDS011;5728;42.722;23.258;2023-04-30T13:34:20;5.00;;;3.40;;
11346;SDS011;5728;42.722;23.258;2023-04-30T13:36:47;5.47;;;3.40;;
11346;SDS011;5728;42.722;23.258;2023-04-30T13:39:14;3.67;;;3.38;;
11346;SDS011;5728;42.722;23.258;2023-04-30T13:41:42;3.15;;;2.80;;
11346;SDS011;5728;42.722;23.258;2023-04-30T13:44:09;3.20;;;2.92;;
11346;SDS011;5728;42.722;23.258;2023-04-30T13:46:36;3.90;;;3.47;;
11346;SDS011;5728;42.722;23.258;2023-04-30T13:49:03;5.75;;;5.05;;
11346;SDS011;5728;42.722;23.258;2023-04-30T13:51:30;11.57;;;5.70;;
11346;SDS011;5728;42.722;23.258;2023-04-30T13:53:57;6.65;;;4.10;;
11346;SDS011;5728;42.722;23.258;2023-04-30T13:56:23;4.57;;;3.75;;
11346;SDS011;5728;42.722;23.258;2023-04-30T13:58:52;5.68;;;3.33;;
11346;SDS011;5728;42.722;23.258;2023-04-30T14:01:19;9.20;;;3.45;;
11346;SDS011;5728;42.722;23.258;2023-04-30T14:03:45;3.70;;;3.38;;
11346;SDS011;5728;42.722;23.258;2023-04-30T14:06:12;12.07;;;3.13;;
11346;SDS011;5728;42.722;23.258;2023-04-30T14:08:39;4.05;;;3.58;;
11346;SDS011;5728;42.722;23.258;2023-04-30T14:11:06;4.25;;;2.92;;
11346;SDS011;5728;42.722;23.258;2023-04-30T14:13:33;3.63;;;3.33;;
11346;SDS011;5728;42.722;23.258;2023-04-30T14:16:01;5.57;;;3.15;;
11346;SDS011;5728;42.722;23.258;2023-04-30T14:18:27;4.03;;;3.15;;
11346;SDS011;5728;42.722;23.258;2023-04-30T14:20:54;6.32;;;4.88;;
11346;SDS011;5728;42.722;23.258;2023-04-30T14:23:21;6.00;;;4.68;;
11346;SDS011;5728;42.722;23.258;2023-04-30T14:25:48;7.60;;;5.50;;
11346;SDS011;5728;42.722;23.258;2023-04-30T14:28:14;7.90;;;5.95;;
11346;SDS011;5728;42.722;23.258;2023-04-30T14:30:41;6.93;;;5.25;;
11346;SDS011;5728;42.722;23.258;2023-04-30T14:33:09;8.68;;;3.80;;
11346;SDS011;5728;42.722;23.258;2023-04-30T14:35:36;3.30;;;3.00;;
11346;SDS011;5728;42.722;23.258;2023-04-30T14:38:03;4.97;;;3.50;;
11346;SDS011;5728;42.722;23.258;2023-04-30T14:40:30;3.40;;;3.10;;
11346;SDS011;5728;42.722;23.258;2023-04-30T14:42:57;4.07;;;2.78;;
11346;SDS011;5728;42.722;23.258;2023-04-30T14:45:24;3.03;;;2.72;;
11346;SDS011;5728;42.722;23.258;2023-04-30T14:47:52;6.47;;;3.20;;
11346;SDS011;5728;42.722;23.258;2023-04-30T14:50:20;4.38;;;2.70;;